Accueil
METAR-TAF:

METAR-TAF

Aéroports :

Aéroport de La Grande-4

La Grande-4, Québec, Canada

latitude: 53-45N, longitude: 073-40W, altitude: 306 m

Observation

Le bulletin a été fait il y a 46 minutes, à 00:00 UTC
Vent 8 kt de ouest/sud-ouest
Température 14°C
Humidité 47%
Pression 1012 hPa
Visibilité: 14.5 km
Nuages fragmentés à une hauteur de 7000 ft
Ciel couvert à une hauteur de 8800 ft

METAR: CYAH 240000Z AUTO 24008KT 9SM BKN070 OVC088 14/03 A2989 RMK SLP133 DENSITY ALT 1100FT

Heure: 20:46 (00:46 UTC)

Prévision

Le bulletin a été fait il y a 7 heures et 8 minutes, à 17:38 UTC
Prévision valable du 23 à 18 UTC au 23 à 21 UTC
Vent 10 kt de sud
Visibilité: 10 km
Nuages épars à une hauteur de 6000 ft
Temporairement
du 23 à 18 UTC au 23 à 21 UTC
Nuages fragmentés à une hauteur de 6000 ft

TAF: CYAH 231738Z 2318/2321 18010KT P6SM SCT060 TEMPO 2318/2321 BKN060 RMK FCST BASED ON AUTO OBS. NXT FCST WILL BE ISSUED AT 241045Z

Observations et prévisions météorologiques de plus de 4000 aéroports (messages METAR et TAF).

Les stations disponibles sont représentées par des disques jaunes et rouges sur la carte.

Passer la souris dessus pour voir le nom de la station.

Cliquer dessus pour voir les observations et prévisions météorologiques.

Pour changer de carte: cliquez sur les boutons verts avec une croix noire pour zoomer, sur le bouton vert avec un tiret pour effectuer un zoom arrière, ou sur les flèches vertes pour les cartes adjacentes.


METAR-TAF: